createdAt,value
2023-04-24T00:01:09.938Z,11.55
2023-04-24T00:03:40.140Z,11.46
2023-04-24T00:06:09.066Z,11.35
2023-04-24T00:08:37.717Z,11.29
2023-04-24T00:11:05.828Z,11.36
2023-04-24T00:13:33.872Z,11.06
2023-04-24T00:16:01.748Z,11.02
2023-04-24T00:18:30.000Z,11.23
2023-04-24T00:20:59.705Z,11.00
2023-04-24T00:23:27.594Z,11.22
2023-04-24T00:25:55.471Z,10.75
2023-04-24T00:28:23.452Z,10.59
2023-04-24T00:30:51.403Z,11.32
2023-04-24T00:33:19.377Z,12.38
2023-04-24T00:35:47.286Z,12.20
2023-04-24T00:38:16.617Z,12.40
2023-04-24T00:40:44.493Z,11.91
2023-04-24T00:43:12.894Z,10.40
2023-04-24T00:45:40.811Z,11.08
2023-04-24T00:48:09.465Z,11.33
2023-04-24T00:50:38.724Z,11.06
2023-04-24T00:53:06.695Z,10.93
2023-04-24T00:55:36.261Z,10.51
2023-04-24T00:58:04.454Z,10.72
2023-04-24T01:00:33.000Z,10.75
2023-04-24T01:03:03.739Z,10.51
2023-04-24T01:05:31.938Z,10.88
2023-04-24T01:08:01.314Z,10.94
2023-04-24T01:10:31.578Z,10.91
2023-04-24T01:13:01.075Z,12.09
2023-04-24T01:15:29.129Z,10.77
2023-04-24T01:17:57.127Z,10.76
2023-04-24T01:20:27.137Z,10.73
2023-04-24T01:22:57.515Z,10.73
2023-04-24T01:25:26.758Z,10.60
2023-04-24T01:27:54.639Z,10.91
2023-04-24T01:30:22.567Z,10.75
2023-04-24T01:32:52.618Z,10.55
2023-04-24T01:35:21.060Z,10.97
2023-04-24T01:37:48.932Z,10.39
2023-04-24T01:40:18.966Z,10.65
2023-04-24T01:42:47.453Z,11.07
2023-04-24T01:45:15.400Z,11.03
2023-04-24T01:47:43.941Z,11.02
2023-04-24T01:50:12.083Z,10.41
2023-04-24T01:52:40.669Z,10.84
2023-04-24T01:55:09.660Z,12.63
2023-04-24T01:57:39.198Z,13.31
2023-04-24T02:00:08.690Z,12.27
2023-04-24T02:02:45.673Z,12.31
2023-04-24T02:05:15.466Z,12.57
2023-04-24T02:07:43.444Z,12.33
2023-04-24T02:10:12.189Z,12.37
2023-04-24T02:12:45.322Z,12.67
2023-04-24T02:15:13.728Z,12.96
2023-04-24T02:17:41.740Z,12.74
2023-04-24T02:20:10.218Z,12.30
2023-04-24T02:22:40.053Z,12.56
2023-04-24T02:25:09.063Z,12.69
2023-04-24T02:27:37.070Z,12.50
2023-04-24T02:30:10.222Z,12.28
2023-04-24T02:32:38.205Z,12.68
2023-04-24T02:35:07.061Z,12.47
2023-04-24T02:37:34.992Z,12.81
2023-04-24T02:40:02.946Z,12.57
2023-04-24T02:42:31.053Z,12.04
2023-04-24T02:44:59.436Z,12.21
2023-04-24T02:47:28.745Z,12.01
2023-04-24T02:49:57.064Z,12.69
2023-04-24T02:52:24.982Z,12.84
2023-04-24T02:54:55.403Z,12.58
2023-04-24T02:57:23.429Z,12.04
2023-04-24T02:59:51.324Z,11.98
2023-04-24T03:02:19.380Z,12.21
2023-04-24T03:04:49.433Z,11.48
2023-04-24T03:07:17.370Z,11.33
2023-04-24T03:09:45.479Z,11.79
2023-04-24T03:12:13.501Z,11.25
2023-04-24T03:14:41.364Z,10.60
2023-04-24T03:17:09.280Z,10.78
2023-04-24T03:19:37.444Z,10.72
2023-04-24T03:22:12.310Z,11.02
2023-04-24T03:24:41.464Z,11.06
2023-04-24T03:27:09.546Z,10.87
2023-04-24T03:29:57.580Z,11.21
2023-04-24T03:32:33.298Z,11.16
2023-04-24T03:35:01.910Z,11.06
2023-04-24T03:37:31.751Z,10.73
2023-04-24T03:40:13.728Z,11.13
2023-04-24T03:42:42.509Z,10.99
2023-04-24T03:45:11.746Z,10.89
2023-04-24T03:47:42.518Z,11.19
2023-04-24T03:50:13.057Z,11.11
2023-04-24T03:52:43.636Z,11.11
2023-04-24T03:55:14.988Z,11.46
2023-04-24T03:57:47.180Z,11.44
2023-04-24T04:00:22.319Z,11.07
2023-04-24T04:02:58.634Z,11.37
2023-04-24T04:05:26.710Z,11.98
2023-04-24T04:07:55.976Z,11.72
2023-04-24T04:10:24.558Z,11.55
2023-04-24T04:12:52.462Z,11.21
2023-04-24T04:15:20.412Z,11.51
2023-04-24T04:17:49.643Z,11.39
2023-04-24T04:20:18.157Z,11.33
2023-04-24T04:22:46.116Z,11.56
2023-04-24T04:25:20.931Z,11.25
2023-04-24T04:27:49.852Z,11.29
2023-04-24T04:30:17.754Z,11.40
2023-04-24T04:32:52.220Z,11.04
2023-04-24T04:35:28.829Z,11.32
2023-04-24T04:37:59.920Z,11.26
2023-04-24T04:40:52.701Z,11.64
2023-04-24T04:43:25.495Z,11.78
2023-04-24T04:45:55.959Z,11.08
2023-04-24T04:48:33.570Z,11.30
2023-04-24T04:51:03.425Z,11.66
2023-04-24T04:53:31.456Z,11.61
2023-04-24T04:56:00.882Z,11.41
2023-04-24T04:58:35.529Z,11.10
2023-04-24T05:01:04.875Z,11.06
2023-04-24T05:03:38.258Z,10.91
2023-04-24T05:06:10.244Z,11.50
2023-04-24T05:08:40.809Z,11.00
2023-04-24T05:11:14.586Z,10.94
2023-04-24T05:13:43.263Z,11.32
2023-04-24T05:16:16.880Z,11.39
2023-04-24T05:18:45.131Z,11.39
2023-04-24T05:21:19.025Z,11.00
2023-04-24T05:23:51.189Z,11.51
2023-04-24T05:26:29.352Z,10.95
2023-04-24T05:28:59.679Z,12.08
2023-04-24T05:31:27.634Z,11.93
2023-04-24T05:33:56.222Z,11.27
2023-04-24T05:36:24.241Z,11.98
2023-04-24T05:38:52.165Z,11.66
2023-04-24T05:41:21.312Z,11.55
2023-04-24T05:43:50.776Z,11.35
2023-04-24T05:46:18.944Z,11.69
2023-04-24T05:48:46.847Z,12.00
2023-04-24T05:51:14.737Z,11.50
2023-04-24T05:53:42.779Z,11.56
2023-04-24T05:56:11.082Z,11.39
2023-04-24T05:58:39.150Z,10.08
2023-04-24T06:01:08.540Z,9.71
2023-04-24T06:03:36.691Z,9.57
2023-04-24T06:06:05.526Z,9.80
2023-04-24T06:08:34.714Z,9.46
2023-04-24T06:11:04.687Z,9.41
2023-04-24T06:13:33.859Z,9.23
2023-04-24T06:16:21.666Z,9.36
2023-04-24T06:18:56.210Z,9.14
2023-04-24T06:21:24.211Z,9.31
2023-04-24T06:23:52.193Z,9.86
2023-04-24T06:26:20.149Z,9.85
2023-04-24T06:28:48.069Z,10.81
2023-04-24T06:31:15.964Z,9.51
2023-04-24T06:33:45.481Z,9.36
2023-04-24T06:36:14.252Z,9.00
2023-04-24T06:38:42.192Z,10.57
2023-04-24T06:41:10.162Z,8.72
2023-04-24T06:43:38.132Z,9.77
2023-04-24T06:46:06.354Z,9.48
2023-04-24T06:48:34.287Z,9.58
2023-04-24T06:51:03.729Z,11.26
2023-04-24T06:53:31.632Z,10.76
2023-04-24T06:55:59.950Z,11.12
2023-04-24T06:58:28.081Z,10.93
2023-04-24T07:00:56.015Z,10.88
2023-04-24T07:03:24.249Z,11.16
2023-04-24T07:05:52.413Z,11.18
2023-04-24T07:08:23.075Z,10.77
2023-04-24T07:10:52.347Z,10.79
2023-04-24T07:13:20.244Z,10.85
2023-04-24T07:15:50.067Z,11.24
2023-04-24T07:18:18.226Z,11.45
2023-04-24T07:20:46.500Z,11.05
2023-04-24T07:23:14.794Z,11.26
2023-04-24T07:25:44.176Z,10.94
2023-04-24T07:28:12.133Z,11.15
2023-04-24T07:30:40.456Z,10.85
2023-04-24T07:33:08.546Z,11.05
2023-04-24T07:35:37.482Z,10.98
2023-04-24T07:38:05.871Z,11.59
2023-04-24T07:40:33.850Z,11.21
2023-04-24T07:43:03.143Z,10.82
2023-04-24T07:45:32.173Z,10.92
2023-04-24T07:48:00.089Z,11.34
2023-04-24T07:50:28.017Z,10.40
2023-04-24T07:52:55.914Z,11.16
2023-04-24T07:55:25.751Z,10.67
2023-04-24T07:57:55.446Z,11.08
2023-04-24T08:00:24.744Z,11.29
2023-04-24T08:02:52.741Z,11.06
2023-04-24T08:05:21.019Z,10.66
2023-04-24T08:07:49.803Z,10.96
2023-04-24T08:10:18.011Z,11.03
2023-04-24T08:12:45.891Z,10.07
2023-04-24T08:15:13.929Z,10.56
2023-04-24T08:17:43.307Z,10.06
2023-04-24T08:20:14.673Z,10.26
2023-04-24T08:22:43.126Z,10.76
2023-04-24T08:25:12.312Z,10.66
2023-04-24T08:27:40.769Z,10.79
2023-04-24T08:30:09.652Z,10.53
2023-04-24T08:32:38.601Z,10.58
2023-04-24T08:35:10.164Z,10.02
2023-04-24T08:37:38.793Z,10.83
2023-04-24T08:40:12.525Z,10.53
2023-04-24T08:42:41.363Z,10.16
2023-04-24T08:45:10.580Z,10.40
2023-04-24T08:47:40.663Z,10.62
2023-04-24T08:50:11.271Z,10.76
2023-04-24T08:52:39.302Z,11.26
2023-04-24T08:55:08.059Z,10.71
2023-04-24T08:57:36.960Z,10.38
2023-04-24T09:00:05.717Z,10.10
2023-04-24T09:02:36.121Z,10.72
2023-04-24T09:05:06.313Z,10.34
2023-04-24T09:07:37.836Z,9.64
2023-04-24T09:10:06.624Z,10.61
2023-04-24T09:12:34.919Z,10.27
2023-04-24T09:15:04.443Z,9.75
2023-04-24T09:17:32.879Z,9.80
2023-04-24T09:20:00.920Z,10.26
2023-04-24T09:22:31.919Z,9.38
2023-04-24T09:25:07.925Z,9.25
2023-04-24T09:27:36.150Z,9.37
2023-04-24T09:30:04.966Z,9.30
2023-04-24T09:32:33.040Z,9.40
2023-04-24T09:35:09.173Z,9.16
2023-04-24T09:37:39.148Z,9.04
2023-04-24T09:40:13.654Z,9.73
2023-04-24T09:42:41.768Z,9.88
2023-04-24T09:45:17.635Z,9.64
2023-04-24T09:47:45.730Z,9.34
2023-04-24T09:50:15.739Z,9.47
2023-04-24T09:52:46.089Z,9.79
2023-04-24T09:55:19.690Z,10.13
2023-04-24T09:57:52.271Z,10.28
2023-04-24T10:00:23.590Z,10.30
2023-04-24T10:03:01.816Z,9.89
2023-04-24T10:05:31.386Z,10.00
2023-04-24T10:08:02.090Z,10.18
2023-04-24T10:10:31.767Z,10.56
2023-04-24T10:12:59.745Z,10.99
2023-04-24T10:15:28.934Z,10.89
2023-04-24T10:17:57.793Z,9.91
2023-04-24T10:20:27.683Z,9.91
2023-04-24T10:22:57.105Z,14.83
2023-04-24T10:25:26.194Z,16.50
2023-04-24T10:27:58.468Z,16.44
2023-04-24T10:30:26.986Z,17.06
2023-04-24T10:32:55.172Z,16.33
2023-04-24T10:35:25.403Z,16.50
2023-04-24T10:37:58.531Z,16.47
2023-04-24T10:40:29.356Z,16.18
2023-04-24T10:42:59.183Z,18.16
2023-04-24T10:45:27.862Z,8.37
2023-04-24T10:48:00.370Z,8.01
2023-04-24T10:50:30.276Z,8.06
2023-04-24T10:53:08.723Z,8.23
2023-04-24T10:55:48.012Z,8.08
2023-04-24T10:58:18.864Z,8.12
2023-04-24T11:00:58.551Z,8.27
2023-04-24T11:03:28.875Z,8.34
2023-04-24T11:06:02.171Z,8.14
2023-04-24T11:08:32.453Z,8.09
2023-04-24T11:11:03.519Z,8.32
2023-04-24T11:14:05.235Z,9.38
2023-04-24T11:16:35.101Z,9.43
2023-04-24T11:19:07.219Z,9.51
2023-04-24T11:21:43.048Z,9.64
2023-04-24T11:24:27.894Z,10.10
2023-04-24T11:26:57.653Z,9.51
2023-04-24T11:29:41.106Z,8.87
2023-04-24T11:32:26.600Z,9.47
2023-04-24T11:34:56.271Z,9.45
2023-04-24T11:37:25.693Z,10.11
2023-04-24T11:39:58.186Z,10.19
2023-04-24T11:42:26.641Z,9.96
2023-04-24T11:44:57.886Z,10.33
2023-04-24T11:47:34.254Z,10.21
2023-04-24T11:50:03.387Z,10.01
2023-04-24T11:52:32.146Z,10.41
2023-04-24T11:55:00.370Z,9.88
2023-04-24T11:57:30.015Z,10.22
2023-04-24T11:59:59.475Z,10.39
2023-04-24T12:02:29.866Z,10.21
2023-04-24T12:04:58.280Z,10.00
2023-04-24T12:07:26.569Z,10.26
2023-04-24T12:10:00.732Z,10.70
2023-04-24T12:12:29.934Z,9.94
2023-04-24T12:15:00.974Z,9.83
2023-04-24T12:17:31.291Z,9.61
2023-04-24T12:20:02.184Z,9.32
2023-04-24T12:22:30.519Z,9.15
2023-04-24T12:25:00.196Z,9.50
2023-04-24T12:27:28.442Z,9.04
2023-04-24T12:30:00.185Z,9.60
2023-04-24T12:32:28.613Z,9.54
2023-04-24T12:34:57.941Z,9.11
2023-04-24T12:37:27.093Z,9.86
2023-04-24T18:16:00.386Z,7.75
2023-04-24T18:18:28.539Z,8.42
2023-04-24T18:20:56.480Z,8.71
2023-04-24T18:23:24.422Z,9.13
2023-04-24T18:25:52.359Z,9.10
2023-04-24T18:28:20.335Z,9.11
2023-04-24T18:30:48.860Z,9.48
2023-04-24T18:33:19.004Z,9.37
2023-04-24T18:35:47.058Z,9.10
2023-04-24T18:38:14.992Z,9.40
2023-04-24T18:40:43.548Z,9.15
2023-04-24T18:43:11.656Z,9.29
2023-04-24T18:45:39.554Z,9.21
2023-04-24T18:48:07.676Z,8.98
2023-04-24T18:50:38.931Z,8.74
2023-04-24T18:53:07.204Z,9.00
2023-04-24T18:55:35.914Z,9.05
2023-04-24T18:58:03.895Z,9.01
2023-04-24T19:00:31.922Z,9.09
2023-04-24T19:03:00.337Z,8.71
2023-04-24T19:05:28.526Z,8.83
2023-04-24T19:07:57.786Z,8.85
2023-04-24T19:10:26.361Z,8.47
2023-04-24T19:12:56.603Z,8.25
2023-04-24T19:15:25.087Z,8.43
2023-04-24T19:17:53.314Z,8.66
2023-04-24T19:20:21.610Z,8.46
2023-04-24T19:22:49.779Z,8.52
2023-04-24T19:25:19.355Z,8.68
2023-04-24T19:27:47.382Z,8.38
2023-04-24T19:30:15.415Z,8.27
2023-04-24T19:32:43.457Z,8.41
2023-04-24T19:35:11.452Z,8.14
2023-04-24T19:37:40.021Z,8.03
2023-04-24T19:40:09.385Z,7.92
2023-04-24T19:42:44.346Z,8.16
2023-04-24T19:45:13.035Z,8.08
2023-04-24T19:47:41.207Z,8.21
2023-04-24T19:50:09.635Z,8.00
2023-04-24T19:52:37.610Z,8.08
2023-04-24T19:55:06.377Z,8.10
2023-04-24T19:57:34.320Z,7.89
2023-04-24T20:00:04.686Z,7.58
2023-04-24T20:02:33.320Z,7.99
2023-04-24T20:05:01.904Z,7.85
2023-04-24T20:07:30.048Z,7.96
2023-04-24T20:09:58.003Z,7.64
2023-04-24T20:12:25.989Z,7.15
2023-04-24T20:14:53.839Z,7.52
2023-04-24T20:17:23.156Z,7.58
2023-04-24T20:19:51.098Z,7.49
2023-04-24T20:22:19.080Z,7.87
2023-04-24T20:24:47.284Z,8.07
2023-04-24T20:27:15.310Z,7.60
2023-04-24T20:29:43.411Z,7.91
2023-04-24T20:32:11.379Z,7.97
2023-04-24T20:34:40.737Z,7.84
2023-04-24T20:37:08.639Z,8.01
2023-04-24T20:39:36.997Z,7.81
2023-04-24T20:42:05.208Z,7.57
2023-04-24T20:44:33.154Z,7.58
2023-04-24T20:47:01.680Z,7.78
2023-04-24T20:49:29.613Z,7.67
2023-04-24T20:51:59.639Z,7.81
2023-04-24T20:54:27.568Z,7.89
2023-04-24T20:56:55.555Z,7.92
2023-04-24T20:59:23.563Z,7.71
2023-04-24T21:01:51.559Z,7.80
2023-04-24T21:04:19.543Z,7.76
2023-04-24T21:06:47.778Z,7.85
2023-04-24T21:09:17.447Z,7.92
2023-04-24T21:11:45.420Z,8.33
2023-04-24T21:14:13.319Z,8.39
2023-04-24T21:16:41.279Z,8.17
2023-04-24T21:19:09.285Z,8.44
2023-04-24T21:21:37.259Z,8.15
2023-04-24T21:24:05.487Z,8.15
2023-04-24T21:26:35.418Z,8.27
2023-04-24T21:29:03.393Z,8.02
2023-04-24T21:31:31.345Z,7.61
2023-04-24T21:33:59.300Z,7.67
2023-04-24T21:36:27.301Z,7.43
2023-04-24T21:38:55.402Z,7.50
2023-04-24T21:41:24.725Z,7.54
2023-04-24T21:43:54.365Z,7.80
2023-04-24T21:46:22.553Z,7.66
2023-04-24T21:48:50.499Z,7.73
2023-04-24T21:51:20.348Z,7.52
2023-04-24T21:53:48.627Z,7.94
2023-04-24T21:56:17.022Z,8.27
2023-04-24T21:58:44.974Z,8.25
2023-04-24T22:01:15.614Z,8.00
2023-04-24T22:03:47.943Z,7.78
2023-04-24T22:06:16.290Z,7.46
2023-04-24T22:08:47.505Z,7.28
2023-04-24T22:11:25.881Z,7.40
2023-04-24T22:13:55.254Z,7.46
2023-04-24T22:16:25.326Z,7.17
2023-04-24T22:18:55.274Z,6.99
2023-04-24T22:21:23.954Z,7.04
2023-04-24T22:23:52.494Z,7.19
2023-04-24T22:26:20.919Z,7.06
2023-04-24T22:28:48.938Z,7.07
2023-04-24T22:31:17.064Z,7.45
2023-04-24T22:33:47.808Z,7.34
2023-04-24T22:36:16.316Z,6.96
2023-04-24T22:38:44.287Z,7.19
2023-04-24T22:41:12.279Z,7.34
2023-04-24T22:43:40.779Z,7.31
2023-04-24T22:46:08.661Z,7.25
2023-04-24T22:48:36.765Z,7.04
2023-04-24T22:51:06.679Z,7.06
2023-04-24T22:53:36.225Z,6.95
2023-04-24T22:56:04.562Z,7.41
2023-04-24T22:58:33.140Z,7.33
2023-04-24T23:01:01.200Z,6.77
2023-04-24T23:03:29.302Z,6.48
2023-04-24T23:05:57.352Z,6.29
2023-04-24T23:08:26.689Z,6.38
2023-04-24T23:10:54.722Z,6.29
2023-04-24T23:13:22.729Z,6.32
2023-04-24T23:15:51.986Z,6.56
2023-04-24T23:18:21.995Z,6.46
2023-04-24T23:20:50.046Z,6.48
2023-04-24T23:23:18.129Z,6.19
2023-04-24T23:25:47.370Z,6.24
2023-04-24T23:28:15.228Z,6.27
2023-04-24T23:30:43.063Z,6.21
2023-04-24T23:33:11.118Z,6.54
2023-04-24T23:35:39.114Z,6.78
2023-04-24T23:38:07.230Z,6.21
2023-04-24T23:40:35.158Z,6.19
2023-04-24T23:43:07.985Z,6.40
2023-04-24T23:45:37.023Z,6.56
2023-04-24T23:48:05.877Z,6.20
2023-04-24T23:50:34.104Z,6.29
2023-04-24T23:53:02.124Z,6.35
2023-04-24T23:55:30.190Z,6.34
2023-04-24T23:57:58.070Z,6.26
